sensor_id;sensor_type;location;lat;lon;timestamp;temperature;humidity
48043;DHT22;33988;47.992;8.820;2023-05-16T00:00:57;17.40;56.60
48043;DHT22;33988;47.992;8.820;2023-05-16T00:03:24;17.40;56.60
48043;DHT22;33988;47.992;8.820;2023-05-16T00:05:53;17.40;56.60
48043;DHT22;33988;47.992;8.820;2023-05-16T00:08:23;17.30;56.50
48043;DHT22;33988;47.992;8.820;2023-05-16T00:10:52;17.30;56.50
48043;DHT22;33988;47.992;8.820;2023-05-16T00:13:19;17.30;56.40
48043;DHT22;33988;47.992;8.820;2023-05-16T00:15:51;17.30;56.50
48043;DHT22;33988;47.992;8.820;2023-05-16T00:18:22;17.30;56.60
48043;DHT22;33988;47.992;8.820;2023-05-16T00:20:49;17.20;56.60
48043;DHT22;33988;47.992;8.820;2023-05-16T00:23:20;17.20;56.60
48043;DHT22;33988;47.992;8.820;2023-05-16T00:25:50;17.20;56.70
48043;DHT22;33988;47.992;8.820;2023-05-16T00:28:19;17.20;56.70
48043;DHT22;33988;47.992;8.820;2023-05-16T00:30:47;17.20;56.70
48043;DHT22;33988;47.992;8.820;2023-05-16T00:33:14;17.20;56.80
48043;DHT22;33988;47.992;8.820;2023-05-16T00:35:41;17.20;56.70
48043;DHT22;33988;47.992;8.820;2023-05-16T00:38:08;17.20;56.80
48043;DHT22;33988;47.992;8.820;2023-05-16T00:40:35;17.20;56.80
48043;DHT22;33988;47.992;8.820;2023-05-16T00:43:05;17.10;56.80
48043;DHT22;33988;47.992;8.820;2023-05-16T00:45:34;17.10;56.80
48043;DHT22;33988;47.992;8.820;2023-05-16T00:48:01;17.10;56.90
48043;DHT22;33988;47.992;8.820;2023-05-16T00:50:28;17.10;56.90
48043;DHT22;33988;47.992;8.820;2023-05-16T00:52:55;17.10;56.90
48043;DHT22;33988;47.992;8.820;2023-05-16T00:55:26;17.10;56.90
48043;DHT22;33988;47.992;8.820;2023-05-16T00:57:55;17.10;56.90
48043;DHT22;33988;47.992;8.820;2023-05-16T01:00:25;17.10;56.90
48043;DHT22;33988;47.992;8.820;2023-05-16T01:02:57;17.10;56.90
48043;DHT22;33988;47.992;8.820;2023-05-16T01:05:29;17.10;56.90
48043;DHT22;33988;47.992;8.820;2023-05-16T01:07:56;17.10;56.90
48043;DHT22;33988;47.992;8.820;2023-05-16T01:10:23;17.00;56.70
48043;DHT22;33988;47.992;8.820;2023-05-16T01:15:48;17.00;56.70
48043;DHT22;33988;47.992;8.820;2023-05-16T01:18:30;16.90;56.70
48043;DHT22;33988;47.992;8.820;2023-05-16T01:21:11;16.90;56.70
48043;DHT22;33988;47.992;8.820;2023-05-16T01:24:03;16.90;56.80
48043;DHT22;33988;47.992;8.820;2023-05-16T01:26:44;16.80;56.70
48043;DHT22;33988;47.992;8.820;2023-05-16T01:29:15;16.90;56.80
48043;DHT22;33988;47.992;8.820;2023-05-16T01:31:44;16.90;56.80
48043;DHT22;33988;47.992;8.820;2023-05-16T01:34:13;16.90;56.80
48043;DHT22;33988;47.992;8.820;2023-05-16T01:36:52;16.60;56.90
48043;DHT22;33988;47.992;8.820;2023-05-16T01:44:49;16.80;56.90
48043;DHT22;33988;47.992;8.820;2023-05-16T01:47:22;16.80;56.90
48043;DHT22;33988;47.992;8.820;2023-05-16T01:52:55;16.80;57.10
48043;DHT22;33988;47.992;8.820;2023-05-16T01:55:33;16.80;57.10
48043;DHT22;33988;47.992;8.820;2023-05-16T01:58:09;16.80;57.00
48043;DHT22;33988;47.992;8.820;2023-05-16T02:00:37;16.80;57.60
48043;DHT22;33988;47.992;8.820;2023-05-16T02:03:04;16.80;56.90
48043;DHT22;33988;47.992;8.820;2023-05-16T02:05:33;16.80;56.90
48043;DHT22;33988;47.992;8.820;2023-05-16T02:08:01;16.80;56.90
48043;DHT22;33988;47.992;8.820;2023-05-16T02:10:28;16.80;56.90
48043;DHT22;33988;47.992;8.820;2023-05-16T02:12:55;16.80;56.90
48043;DHT22;33988;47.992;8.820;2023-05-16T02:15:23;16.80;56.90
48043;DHT22;33988;47.992;8.820;2023-05-16T02:17:53;16.80;57.00
48043;DHT22;33988;47.992;8.820;2023-05-16T02:20:21;16.80;56.90
48043;DHT22;33988;47.992;8.820;2023-05-16T02:22:50;16.80;56.90
48043;DHT22;33988;47.992;8.820;2023-05-16T02:25:18;16.80;56.90
48043;DHT22;33988;47.992;8.820;2023-05-16T02:27:45;16.80;57.00
48043;DHT22;33988;47.992;8.820;2023-05-16T02:30:14;16.80;57.00
48043;DHT22;33988;47.992;8.820;2023-05-16T02:32:46;16.80;57.00
48043;DHT22;33988;47.992;8.820;2023-05-16T02:35:17;16.80;57.10
48043;DHT22;33988;47.992;8.820;2023-05-16T02:37:44;16.70;57.00
48043;DHT22;33988;47.992;8.820;2023-05-16T02:40:14;16.80;57.10
48043;DHT22;33988;47.992;8.820;2023-05-16T02:42:41;16.80;57.10
48043;DHT22;33988;47.992;8.820;2023-05-16T02:45:10;16.80;57.20
48043;DHT22;33988;47.992;8.820;2023-05-16T02:47:39;16.70;57.20
48043;DHT22;33988;47.992;8.820;2023-05-16T02:50:09;16.50;57.30
48043;DHT22;33988;47.992;8.820;2023-05-16T02:52:43;16.70;57.20
48043;DHT22;33988;47.992;8.820;2023-05-16T02:55:12;16.70;57.10
48043;DHT22;33988;47.992;8.820;2023-05-16T02:57:50;16.80;57.20
48043;DHT22;33988;47.992;8.820;2023-05-16T03:00:19;16.80;57.20
48043;DHT22;33988;47.992;8.820;2023-05-16T03:02:46;16.70;57.20
48043;DHT22;33988;47.992;8.820;2023-05-16T03:05:14;16.70;57.20
48043;DHT22;33988;47.992;8.820;2023-05-16T03:07:42;16.80;57.30
48043;DHT22;33988;47.992;8.820;2023-05-16T03:10:09;16.80;57.30
48043;DHT22;33988;47.992;8.820;2023-05-16T03:12:36;16.80;57.30
48043;DHT22;33988;47.992;8.820;2023-05-16T03:15:04;16.80;57.40
48043;DHT22;33988;47.992;8.820;2023-05-16T03:17:36;16.80;57.40
48043;DHT22;33988;47.992;8.820;2023-05-16T03:20:04;16.80;57.40
48043;DHT22;33988;47.992;8.820;2023-05-16T03:22:35;16.80;57.40
48043;DHT22;33988;47.992;8.820;2023-05-16T03:25:06;16.80;57.50
48043;DHT22;33988;47.992;8.820;2023-05-16T03:27:37;16.80;57.50
48043;DHT22;33988;47.992;8.820;2023-05-16T03:30:05;16.80;57.50
48043;DHT22;33988;47.992;8.820;2023-05-16T03:32:36;16.80;57.50
48043;DHT22;33988;47.992;8.820;2023-05-16T03:35:03;16.80;57.50
48043;DHT22;33988;47.992;8.820;2023-05-16T03:37:30;16.80;57.50
48043;DHT22;33988;47.992;8.820;2023-05-16T03:39:59;16.80;57.50
48043;DHT22;33988;47.992;8.820;2023-05-16T03:42:26;16.90;57.60
48043;DHT22;33988;47.992;8.820;2023-05-16T03:44:53;16.80;57.50
48043;DHT22;33988;47.992;8.820;2023-05-16T03:47:20;16.90;57.60
48043;DHT22;33988;47.992;8.820;2023-05-16T03:49:47;16.80;57.60
48043;DHT22;33988;47.992;8.820;2023-05-16T03:52:14;16.90;57.60
48043;DHT22;33988;47.992;8.820;2023-05-16T03:54:47;16.80;57.60
48043;DHT22;33988;47.992;8.820;2023-05-16T03:57:18;16.80;57.60
48043;DHT22;33988;47.992;8.820;2023-05-16T03:59:47;16.90;57.70
48043;DHT22;33988;47.992;8.820;2023-05-16T04:02:14;16.80;57.60
48043;DHT22;33988;47.992;8.820;2023-05-16T04:04:44;16.90;57.70
48043;DHT22;33988;47.992;8.820;2023-05-16T04:07:12;16.90;57.70
48043;DHT22;33988;47.992;8.820;2023-05-16T04:09:41;16.80;57.70
48043;DHT22;33988;47.992;8.820;2023-05-16T04:12:08;16.90;58.40
48043;DHT22;33988;47.992;8.820;2023-05-16T04:14:37;16.90;57.80
48043;DHT22;33988;47.992;8.820;2023-05-16T04:17:06;16.80;57.70
48043;DHT22;33988;47.992;8.820;2023-05-16T04:19:36;16.60;57.90
48043;DHT22;33988;47.992;8.820;2023-05-16T04:22:03;16.80;57.80
48043;DHT22;33988;47.992;8.820;2023-05-16T04:24:33;16.80;57.80
48043;DHT22;33988;47.992;8.820;2023-05-16T04:27:05;16.80;57.90
48043;DHT22;33988;47.992;8.820;2023-05-16T04:29:35;16.80;58.00
48043;DHT22;33988;47.992;8.820;2023-05-16T04:32:02;16.80;58.10
48043;DHT22;33988;47.992;8.820;2023-05-16T04:34:34;16.80;58.20
48043;DHT22;33988;47.992;8.820;2023-05-16T04:37:06;16.80;58.30
48043;DHT22;33988;47.992;8.820;2023-05-16T04:39:34;16.90;58.40
48043;DHT22;33988;47.992;8.820;2023-05-16T04:42:02;16.90;58.40
48043;DHT22;33988;47.992;8.820;2023-05-16T04:44:29;16.90;58.40
48043;DHT22;33988;47.992;8.820;2023-05-16T04:47:00;16.90;58.50
48043;DHT22;33988;47.992;8.820;2023-05-16T04:49:29;16.90;58.50
48043;DHT22;33988;47.992;8.820;2023-05-16T04:51:56;17.00;58.60
48043;DHT22;33988;47.992;8.820;2023-05-16T04:54:23;17.00;58.60
48043;DHT22;33988;47.992;8.820;2023-05-16T04:56:50;17.00;58.60
48043;DHT22;33988;47.992;8.820;2023-05-16T04:59:17;17.10;58.60
48043;DHT22;33988;47.992;8.820;2023-05-16T05:01:44;17.10;58.60
48043;DHT22;33988;47.992;8.820;2023-05-16T05:04:11;17.10;58.70
48043;DHT22;33988;47.992;8.820;2023-05-16T05:06:40;17.20;58.70
48043;DHT22;33988;47.992;8.820;2023-05-16T05:09:07;17.20;58.60
48043;DHT22;33988;47.992;8.820;2023-05-16T05:11:36;17.20;58.60
48043;DHT22;33988;47.992;8.820;2023-05-16T05:14:03;17.20;58.50
48043;DHT22;33988;47.992;8.820;2023-05-16T05:16:35;17.20;58.60
48043;DHT22;33988;47.992;8.820;2023-05-16T05:19:11;17.20;58.60
48043;DHT22;33988;47.992;8.820;2023-05-16T05:21:38;17.20;58.60
48043;DHT22;33988;47.992;8.820;2023-05-16T05:24:05;17.30;58.60
48043;DHT22;33988;47.992;8.820;2023-05-16T05:26:36;17.30;58.60
48043;DHT22;33988;47.992;8.820;2023-05-16T05:29:03;17.30;58.60
48043;DHT22;33988;47.992;8.820;2023-05-16T05:31:32;17.30;58.70
48043;DHT22;33988;47.992;8.820;2023-05-16T05:34:03;17.30;58.70
48043;DHT22;33988;47.992;8.820;2023-05-16T05:36:29;17.30;58.70
48043;DHT22;33988;47.992;8.820;2023-05-16T05:38:57;17.30;58.70
48043;DHT22;33988;47.992;8.820;2023-05-16T05:41:24;17.40;58.70
48043;DHT22;33988;47.992;8.820;2023-05-16T05:43:55;17.40;58.70
48043;DHT22;33988;47.992;8.820;2023-05-16T05:46:24;17.20;58.80
48043;DHT22;33988;47.992;8.820;2023-05-16T05:48:52;17.40;58.60
48043;DHT22;33988;47.992;8.820;2023-05-16T05:51:19;17.50;58.60
48043;DHT22;33988;47.992;8.820;2023-05-16T05:53:46;17.50;58.60
48043;DHT22;33988;47.992;8.820;2023-05-16T05:56:13;17.50;58.60
48043;DHT22;33988;47.992;8.820;2023-05-16T05:58:42;17.50;58.60
48043;DHT22;33988;47.992;8.820;2023-05-16T06:01:12;17.50;58.60
48043;DHT22;33988;47.992;8.820;2023-05-16T06:03:41;17.50;58.50
48043;DHT22;33988;47.992;8.820;2023-05-16T06:06:08;17.50;58.60
48043;DHT22;33988;47.992;8.820;2023-05-16T06:08:38;17.50;58.50
48043;DHT22;33988;47.992;8.820;2023-05-16T06:11:07;17.50;58.50
48043;DHT22;33988;47.992;8.820;2023-05-16T06:13:37;17.50;58.40
48043;DHT22;33988;47.992;8.820;2023-05-16T06:16:04;17.60;58.40
48043;DHT22;33988;47.992;8.820;2023-05-16T06:18:36;17.60;58.50
48043;DHT22;33988;47.992;8.820;2023-05-16T06:21:05;17.60;58.50
48043;DHT22;33988;47.992;8.820;2023-05-16T06:23:35;17.60;58.50
48043;DHT22;33988;47.992;8.820;2023-05-16T06:26:07;17.60;58.50
48043;DHT22;33988;47.992;8.820;2023-05-16T06:28:34;17.60;58.50
48043;DHT22;33988;47.992;8.820;2023-05-16T06:31:01;17.60;58.50
48043;DHT22;33988;47.992;8.820;2023-05-16T06:33:30;17.60;58.50
48043;DHT22;33988;47.992;8.820;2023-05-16T06:35:59;17.70;58.50
48043;DHT22;33988;47.992;8.820;2023-05-16T06:38:26;17.70;58.50
48043;DHT22;33988;47.992;8.820;2023-05-16T06:40:53;17.70;58.50
48043;DHT22;33988;47.992;8.820;2023-05-16T06:43:20;17.70;58.50
48043;DHT22;33988;47.992;8.820;2023-05-16T06:45:50;17.70;58.50
48043;DHT22;33988;47.992;8.820;2023-05-16T06:48:17;17.70;58.50
48043;DHT22;33988;47.992;8.820;2023-05-16T06:50:52;17.70;58.40
48043;DHT22;33988;47.992;8.820;2023-05-16T06:53:19;17.80;58.50
48043;DHT22;33988;47.992;8.820;2023-05-16T06:55:46;17.70;58.50
48043;DHT22;33988;47.992;8.820;2023-05-16T06:58:16;17.80;58.50
48043;DHT22;33988;47.992;8.820;2023-05-16T07:00:43;17.80;59.10
48043;DHT22;33988;47.992;8.820;2023-05-16T07:03:10;17.80;58.40
48043;DHT22;33988;47.992;8.820;2023-05-16T07:05:41;17.80;58.40
48043;DHT22;33988;47.992;8.820;2023-05-16T07:08:08;17.80;58.40
48043;DHT22;33988;47.992;8.820;2023-05-16T07:10:39;17.80;58.40
48043;DHT22;33988;47.992;8.820;2023-05-16T07:13:05;17.80;58.30
48043;DHT22;33988;47.992;8.820;2023-05-16T07:15:33;17.90;58.40
48043;DHT22;33988;47.992;8.820;2023-05-16T07:18:00;17.90;58.30
48043;DHT22;33988;47.992;8.820;2023-05-16T07:20:31;17.90;58.20
48043;DHT22;33988;47.992;8.820;2023-05-16T07:23:01;17.90;58.20
48043;DHT22;33988;47.992;8.820;2023-05-16T07:25:33;17.90;58.10
48043;DHT22;33988;47.992;8.820;2023-05-16T07:28:00;17.90;58.10
48043;DHT22;33988;47.992;8.820;2023-05-16T07:30:27;17.90;58.20
48043;DHT22;33988;47.992;8.820;2023-05-16T07:32:56;18.00;58.20
48043;DHT22;33988;47.992;8.820;2023-05-16T07:35:24;17.90;58.10
48043;DHT22;33988;47.992;8.820;2023-05-16T07:37:54;18.00;58.20
48043;DHT22;33988;47.992;8.820;2023-05-16T07:40:23;18.00;58.20
48043;DHT22;33988;47.992;8.820;2023-05-16T07:42:54;18.10;58.30
48043;DHT22;33988;47.992;8.820;2023-05-16T07:45:24;18.10;58.40
48043;DHT22;33988;47.992;8.820;2023-05-16T07:47:53;18.10;58.30
48043;DHT22;33988;47.992;8.820;2023-05-16T07:50:23;18.10;58.30
48043;DHT22;33988;47.992;8.820;2023-05-16T07:52:50;18.20;58.30
48043;DHT22;33988;47.992;8.820;2023-05-16T07:55:22;18.20;58.30
48043;DHT22;33988;47.992;8.820;2023-05-16T07:57:51;18.20;58.10
48043;DHT22;33988;47.992;8.820;2023-05-16T08:00:19;18.30;58.00
48043;DHT22;33988;47.992;8.820;2023-05-16T08:02:50;18.30;57.90
48043;DHT22;33988;47.992;8.820;2023-05-16T08:05:19;18.30;57.80
48043;DHT22;33988;47.992;8.820;2023-05-16T08:07:49;18.40;57.70
48043;DHT22;33988;47.992;8.820;2023-05-16T08:10:16;18.40;57.60
48043;DHT22;33988;47.992;8.820;2023-05-16T08:12:49;18.40;57.60
48043;DHT22;33988;47.992;8.820;2023-05-16T08:15:21;18.40;57.60
48043;DHT22;33988;47.992;8.820;2023-05-16T08:17:53;18.40;57.50
48043;DHT22;33988;47.992;8.820;2023-05-16T08:20:25;18.40;57.30
48043;DHT22;33988;47.992;8.820;2023-05-16T08:22:57;18.40;57.30
48043;DHT22;33988;47.992;8.820;2023-05-16T08:25:24;18.40;57.30
48043;DHT22;33988;47.992;8.820;2023-05-16T08:28:02;18.40;57.30
48043;DHT22;33988;47.992;8.820;2023-05-16T08:30:29;18.40;57.10
48043;DHT22;33988;47.992;8.820;2023-05-16T08:32:56;18.40;57.00
48043;DHT22;33988;47.992;8.820;2023-05-16T08:35:26;18.40;57.00
48043;DHT22;33988;47.992;8.820;2023-05-16T08:37:55;18.40;56.90
48043;DHT22;33988;47.992;8.820;2023-05-16T08:40:25;18.40;56.90
48043;DHT22;33988;47.992;8.820;2023-05-16T08:42:53;18.40;56.80
48043;DHT22;33988;47.992;8.820;2023-05-16T08:45:22;18.30;56.80
48043;DHT22;33988;47.992;8.820;2023-05-16T08:47:55;18.30;56.90
48043;DHT22;33988;47.992;8.820;2023-05-16T08:50:23;18.30;56.80
48043;DHT22;33988;47.992;8.820;2023-05-16T08:52:53;18.30;56.80
48043;DHT22;33988;47.992;8.820;2023-05-16T08:55:20;18.30;56.90
48043;DHT22;33988;47.992;8.820;2023-05-16T08:57:49;18.30;56.90
48043;DHT22;33988;47.992;8.820;2023-05-16T09:00:19;18.20;56.80
48043;DHT22;33988;47.992;8.820;2023-05-16T09:02:49;18.30;56.90
48043;DHT22;33988;47.992;8.820;2023-05-16T09:05:20;18.20;56.80
48043;DHT22;33988;47.992;8.820;2023-05-16T09:07:50;18.20;56.90
48043;DHT22;33988;47.992;8.820;2023-05-16T09:10:17;18.20;56.90
48043;DHT22;33988;47.992;8.820;2023-05-16T09:12:46;18.20;57.00
48043;DHT22;33988;47.992;8.820;2023-05-16T09:15:17;18.20;57.10
48043;DHT22;33988;47.992;8.820;2023-05-16T09:17:47;18.20;57.20
48043;DHT22;33988;47.992;8.820;2023-05-16T09:20:16;18.20;57.20
48043;DHT22;33988;47.992;8.820;2023-05-16T09:22:58;18.20;57.20
48043;DHT22;33988;47.992;8.820;2023-05-16T09:25:31;18.20;57.30
48043;DHT22;33988;47.992;8.820;2023-05-16T09:28:00;18.20;57.30
48043;DHT22;33988;47.992;8.820;2023-05-16T09:30:30;18.20;57.20
48043;DHT22;33988;47.992;8.820;2023-05-16T09:33:00;18.20;57.20
48043;DHT22;33988;47.992;8.820;2023-05-16T09:35:27;18.20;57.10
48043;DHT22;33988;47.992;8.820;2023-05-16T09:37:57;18.10;57.00
48043;DHT22;33988;47.992;8.820;2023-05-16T09:40:24;18.20;57.20
48043;DHT22;33988;47.992;8.820;2023-05-16T09:43:05;18.10;57.10
48043;DHT22;33988;47.992;8.820;2023-05-16T09:45:35;18.10;56.90
48043;DHT22;33988;47.992;8.820;2023-05-16T09:48:11;18.00;56.90
48043;DHT22;33988;47.992;8.820;2023-05-16T09:50:38;18.00;57.00
48043;DHT22;33988;47.992;8.820;2023-05-16T09:53:06;18.00;57.10
48043;DHT22;33988;47.992;8.820;2023-05-16T09:55:35;18.00;57.10
48043;DHT22;33988;47.992;8.820;2023-05-16T09:58:04;18.00;57.20
48043;DHT22;33988;47.992;8.820;2023-05-16T10:00:33;18.00;57.20
48043;DHT22;33988;47.992;8.820;2023-05-16T10:03:01;17.90;57.10
48043;DHT22;33988;47.992;8.820;2023-05-16T10:05:32;18.00;57.10
48043;DHT22;33988;47.992;8.820;2023-05-16T10:08:01;17.70;57.20
48043;DHT22;33988;47.992;8.820;2023-05-16T10:10:35;17.90;57.10
48043;DHT22;33988;47.992;8.820;2023-05-16T10:13:05;17.90;57.00
48043;DHT22;33988;47.992;8.820;2023-05-16T10:15:35;17.90;57.00
48043;DHT22;33988;47.992;8.820;2023-05-16T10:18:04;17.90;57.00
48043;DHT22;33988;47.992;8.820;2023-05-16T10:20:40;17.60;57.20
48043;DHT22;33988;47.992;8.820;2023-05-16T10:23:08;17.80;57.10
48043;DHT22;33988;47.992;8.820;2023-05-16T10:25:43;17.80;57.00
48043;DHT22;33988;47.992;8.820;2023-05-16T10:28:14;17.80;57.00
48043;DHT22;33988;47.992;8.820;2023-05-16T10:30:45;17.70;57.00
48043;DHT22;33988;47.992;8.820;2023-05-16T10:33:14;17.80;57.70
48043;DHT22;33988;47.992;8.820;2023-05-16T10:35:45;17.80;57.10
48043;DHT22;33988;47.992;8.820;2023-05-16T10:38:16;17.80;57.10
48043;DHT22;33988;47.992;8.820;2023-05-16T10:40:47;17.80;57.10
48043;DHT22;33988;47.992;8.820;2023-05-16T10:43:26;17.80;57.10
48043;DHT22;33988;47.992;8.820;2023-05-16T10:45:55;17.80;56.90
48043;DHT22;33988;47.992;8.820;2023-05-16T10:48:37;17.80;56.80
48043;DHT22;33988;47.992;8.820;2023-05-16T10:54:09;17.70;56.70
48043;DHT22;33988;47.992;8.820;2023-05-16T10:56:38;17.70;56.70
48043;DHT22;33988;47.992;8.820;2023-05-16T10:59:22;17.70;56.70
48043;DHT22;33988;47.992;8.820;2023-05-16T11:01:54;17.70;56.50
48043;DHT22;33988;47.992;8.820;2023-05-16T11:04:46;17.70;56.60
48043;DHT22;33988;47.992;8.820;2023-05-16T11:07:17;17.70;56.50
48043;DHT22;33988;47.992;8.820;2023-05-16T11:10:07;17.70;56.60
48043;DHT22;33988;47.992;8.820;2023-05-16T11:12:43;17.70;56.60
48043;DHT22;33988;47.992;8.820;2023-05-16T11:15:32;17.80;56.60
48043;DHT22;33988;47.992;8.820;2023-05-16T11:18:08;17.70;56.50
48043;DHT22;33988;47.992;8.820;2023-05-16T11:20:41;17.80;56.50
48043;DHT22;33988;47.992;8.820;2023-05-16T11:23:28;17.80;56.50
48043;DHT22;33988;47.992;8.820;2023-05-16T11:25:58;17.80;56.30
48043;DHT22;33988;47.992;8.820;2023-05-16T11:28:27;17.90;56.60
48043;DHT22;33988;47.992;8.820;2023-05-16T11:30:57;17.90;56.50
48043;DHT22;33988;47.992;8.820;2023-05-16T11:33:25;17.90;56.50
48043;DHT22;33988;47.992;8.820;2023-05-16T11:36:08;17.90;56.50
48043;DHT22;33988;47.992;8.820;2023-05-16T11:38:38;17.90;56.40
48043;DHT22;33988;47.992;8.820;2023-05-16T11:41:09;18.00;56.50
48043;DHT22;33988;47.992;8.820;2023-05-16T11:43:41;18.10;56.60
48043;DHT22;33988;47.992;8.820;2023-05-16T11:46:14;18.10;56.40
48043;DHT22;33988;47.992;8.820;2023-05-16T11:48:42;18.10;56.30
48043;DHT22;33988;47.992;8.820;2023-05-16T11:51:13;18.10;56.20
48043;DHT22;33988;47.992;8.820;2023-05-16T11:53:45;18.10;56.20
48043;DHT22;33988;47.992;8.820;2023-05-16T11:56:15;17.90;56.30
48043;DHT22;33988;47.992;8.820;2023-05-16T11:58:42;18.10;56.20
48043;DHT22;33988;47.992;8.820;2023-05-16T12:01:11;18.20;56.10
48043;DHT22;33988;47.992;8.820;2023-05-16T12:03:38;18.20;56.10
48043;DHT22;33988;47.992;8.820;2023-05-16T12:06:06;18.20;56.00
48043;DHT22;33988;47.992;8.820;2023-05-16T12:08:36;18.20;55.90
48043;DHT22;33988;47.992;8.820;2023-05-16T12:11:04;18.20;55.80
48043;DHT22;33988;47.992;8.820;2023-05-16T12:13:33;18.20;55.80
48043;DHT22;33988;47.992;8.820;2023-05-16T12:16:01;18.20;55.70
48043;DHT22;33988;47.992;8.820;2023-05-16T12:18:28;18.20;55.60
48043;DHT22;33988;47.992;8.820;2023-05-16T12:20:57;18.30;55.50
48043;DHT22;33988;47.992;8.820;2023-05-16T12:23:26;18.20;55.30
48043;DHT22;33988;47.992;8.820;2023-05-16T12:25:54;18.20;55.20
48043;DHT22;33988;47.992;8.820;2023-05-16T12:28:23;18.20;55.20
48043;DHT22;33988;47.992;8.820;2023-05-16T12:30:52;18.20;55.20
48043;DHT22;33988;47.992;8.820;2023-05-16T12:33:21;18.20;55.10
48043;DHT22;33988;47.992;8.820;2023-05-16T12:35:48;18.20;55.10
48043;DHT22;33988;47.992;8.820;2023-05-16T12:38:18;18.10;55.20
48043;DHT22;33988;47.992;8.820;2023-05-16T12:40:46;18.10;55.20
48043;DHT22;33988;47.992;8.820;2023-05-16T12:43:20;18.10;55.20
48043;DHT22;33988;47.992;8.820;2023-05-16T12:45:53;18.20;55.30
48043;DHT22;33988;47.992;8.820;2023-05-16T12:48:28;18.10;55.30
48043;DHT22;33988;47.992;8.820;2023-05-16T12:51:11;18.10;55.40
48043;DHT22;33988;47.992;8.820;2023-05-16T12:53:48;18.10;55.40
48043;DHT22;33988;47.992;8.820;2023-05-16T12:56:37;18.10;55.40
48043;DHT22;33988;47.992;8.820;2023-05-16T12:59:05;18.10;55.50
48043;DHT22;33988;47.992;8.820;2023-05-16T13:01:32;18.10;55.40
48043;DHT22;33988;47.992;8.820;2023-05-16T13:04:01;18.10;55.40
48043;DHT22;33988;47.992;8.820;2023-05-16T13:06:29;18.10;55.40
48043;DHT22;33988;47.992;8.820;2023-05-16T13:09:17;18.10;55.50
48043;DHT22;33988;47.992;8.820;2023-05-16T13:11:44;18.10;56.20
48043;DHT22;33988;47.992;8.820;2023-05-16T13:14:14;18.10;55.60
48043;DHT22;33988;47.992;8.820;2023-05-16T13:16:43;18.10;56.00
48043;DHT22;33988;47.992;8.820;2023-05-16T13:19:11;18.10;55.70
48043;DHT22;33988;47.992;8.820;2023-05-16T13:21:40;18.10;55.70
48043;DHT22;33988;47.992;8.820;2023-05-16T13:24:07;18.10;55.70
48043;DHT22;33988;47.992;8.820;2023-05-16T13:26:34;18.10;55.70
48043;DHT22;33988;47.992;8.820;2023-05-16T13:29:06;18.10;55.70
48043;DHT22;33988;47.992;8.820;2023-05-16T13:31:35;18.10;55.80
48043;DHT22;33988;47.992;8.820;2023-05-16T13:34:02;18.00;55.80
48043;DHT22;33988;47.992;8.820;2023-05-16T13:36:29;18.10;55.90
48043;DHT22;33988;47.992;8.820;2023-05-16T13:39:18;18.10;55.90
48043;DHT22;33988;47.992;8.820;2023-05-16T13:41:50;18.00;55.80
48043;DHT22;33988;47.992;8.820;2023-05-16T13:44:20;18.00;55.70
48043;DHT22;33988;47.992;8.820;2023-05-16T13:46:50;18.00;55.60
48043;DHT22;33988;47.992;8.820;2023-05-16T13:49:17;18.00;55.50
48043;DHT22;33988;47.992;8.820;2023-05-16T13:51:45;18.00;55.60
48043;DHT22;33988;47.992;8.820;2023-05-16T13:54:12;18.00;55.60
48043;DHT22;33988;47.992;8.820;2023-05-16T13:56:45;18.00;55.70
48043;DHT22;33988;47.992;8.820;2023-05-16T13:59:19;18.00;55.70
48043;DHT22;33988;47.992;8.820;2023-05-16T14:02:09;18.00;55.80
48043;DHT22;33988;47.992;8.820;2023-05-16T14:04:38;18.00;55.90
48043;DHT22;33988;47.992;8.820;2023-05-16T14:07:07;18.00;55.90
48043;DHT22;33988;47.992;8.820;2023-05-16T14:09:37;18.10;56.10
48043;DHT22;33988;47.992;8.820;2023-05-16T14:12:06;18.10;56.10
48043;DHT22;33988;47.992;8.820;2023-05-16T14:14:36;18.10;56.10
48043;DHT22;33988;47.992;8.820;2023-05-16T14:17:03;18.20;56.00
48043;DHT22;33988;47.992;8.820;2023-05-16T14:19:33;18.20;55.90
48043;DHT22;33988;47.992;8.820;2023-05-16T14:22:02;18.20;55.90
48043;DHT22;33988;47.992;8.820;2023-05-16T14:24:29;18.20;55.80
48043;DHT22;33988;47.992;8.820;2023-05-16T14:26:59;18.20;55.80
48043;DHT22;33988;47.992;8.820;2023-05-16T14:29:26;18.20;55.70
48043;DHT22;33988;47.992;8.820;2023-05-16T14:31:53;18.20;55.60
48043;DHT22;33988;47.992;8.820;2023-05-16T14:34:23;18.20;55.60
48043;DHT22;33988;47.992;8.820;2023-05-16T14:36:50;18.20;55.60
48043;DHT22;33988;47.992;8.820;2023-05-16T14:39:19;18.20;55.50
48043;DHT22;33988;47.992;8.820;2023-05-16T14:41:46;18.20;55.30
48043;DHT22;33988;47.992;8.820;2023-05-16T14:44:13;18.20;55.20
48043;DHT22;33988;47.992;8.820;2023-05-16T14:46:43;18.20;55.10
48043;DHT22;33988;47.992;8.820;2023-05-16T14:49:10;18.20;55.00
48043;DHT22;33988;47.992;8.820;2023-05-16T14:51:39;18.20;55.00
48043;DHT22;33988;47.992;8.820;2023-05-16T14:54:13;18.10;54.90
48043;DHT22;33988;47.992;8.820;2023-05-16T14:56:40;18.10;54.80
48043;DHT22;33988;47.992;8.820;2023-05-16T14:59:07;18.10;54.70
48043;DHT22;33988;47.992;8.820;2023-05-16T15:01:34;18.10;54.70
48043;DHT22;33988;47.992;8.820;2023-05-16T15:04:01;18.00;54.70
48043;DHT22;33988;47.992;8.820;2023-05-16T15:06:28;18.00;54.70
48043;DHT22;33988;47.992;8.820;2023-05-16T15:08:55;18.00;54.60
48043;DHT22;33988;47.992;8.820;2023-05-16T15:11:27;17.90;54.50
48043;DHT22;33988;47.992;8.820;2023-05-16T15:13:57;17.90;54.60
48043;DHT22;33988;47.992;8.820;2023-05-16T15:16:31;17.80;54.50
48043;DHT22;33988;47.992;8.820;2023-05-16T15:18:58;17.80;54.50
48043;DHT22;33988;47.992;8.820;2023-05-16T15:21:30;17.70;54.50
48043;DHT22;33988;47.992;8.820;2023-05-16T15:23:58;17.50;54.80
48043;DHT22;33988;47.992;8.820;2023-05-16T15:26:28;17.60;54.70
48043;DHT22;33988;47.992;8.820;2023-05-16T15:28:55;17.70;54.80
48043;DHT22;33988;47.992;8.820;2023-05-16T15:31:22;17.60;54.70
48043;DHT22;33988;47.992;8.820;2023-05-16T15:33:53;17.60;54.70
48043;DHT22;33988;47.992;8.820;2023-05-16T15:36:20;17.60;54.80
48043;DHT22;33988;47.992;8.820;2023-05-16T15:38:47;17.60;54.80
48043;DHT22;33988;47.992;8.820;2023-05-16T15:41:14;17.50;54.70
48043;DHT22;33988;47.992;8.820;2023-05-16T15:44:01;17.50;54.70
48043;DHT22;33988;47.992;8.820;2023-05-16T15:46:31;17.50;54.70
48043;DHT22;33988;47.992;8.820;2023-05-16T15:48:59;17.40;54.70
48043;DHT22;33988;47.992;8.820;2023-05-16T15:51:30;17.40;54.70
48043;DHT22;33988;47.992;8.820;2023-05-16T15:53:57;17.40;55.40
48043;DHT22;33988;47.992;8.820;2023-05-16T15:56:26;17.40;54.80
48043;DHT22;33988;47.992;8.820;2023-05-16T15:58:59;17.30;54.80
48043;DHT22;33988;47.992;8.820;2023-05-16T16:01:28;17.30;54.90